createdAt,value
2023-03-25T00:02:24.418Z,60.40
2023-03-25T00:04:52.751Z,59.50
2023-03-25T00:07:21.354Z,58.40
2023-03-25T00:09:48.682Z,58.40
2023-03-25T00:12:18.970Z,58.00
2023-03-25T00:14:54.804Z,57.90
2023-03-25T00:17:23.441Z,57.50
2023-03-25T00:19:53.087Z,57.60
2023-03-25T00:22:19.844Z,57.50
2023-03-25T00:24:46.789Z,57.10
2023-03-25T00:27:14.463Z,56.60
2023-03-25T00:29:44.829Z,56.70
2023-03-25T00:32:12.413Z,56.30
2023-03-25T00:34:41.909Z,55.90
2023-03-25T00:37:09.535Z,55.80
2023-03-25T00:39:38.092Z,55.20
2023-03-25T00:42:05.206Z,54.70
2023-03-25T00:44:32.549Z,54.70
2023-03-25T00:46:59.359Z,54.90
2023-03-25T00:49:28.751Z,53.80
2023-03-25T00:51:58.529Z,54.10
2023-03-25T00:54:25.303Z,53.90
2023-03-25T00:56:53.386Z,53.50
2023-03-25T00:59:20.718Z,53.10
2023-03-25T01:01:47.448Z,53.40
2023-03-25T01:04:14.205Z,53.20
2023-03-25T01:06:44.421Z,53.30
2023-03-25T01:09:13.913Z,53.00
2023-03-25T01:11:42.907Z,52.60
2023-03-25T01:14:15.021Z,52.90
2023-03-25T01:16:42.084Z,52.30
2023-03-25T01:19:09.770Z,52.30
2023-03-25T01:21:36.869Z,52.30
2023-03-25T01:24:05.245Z,51.80
2023-03-25T01:26:32.043Z,52.30
2023-03-25T01:28:58.905Z,51.80
2023-03-25T01:31:30.591Z,52.20
2023-03-25T01:33:58.387Z,52.20
2023-03-25T01:36:29.329Z,52.50
2023-03-25T01:38:59.133Z,52.80
2023-03-25T01:41:33.228Z,52.70
2023-03-25T01:44:30.933Z,52.80
2023-03-25T01:47:01.818Z,52.70
2023-03-25T01:49:38.873Z,52.50
2023-03-25T01:52:25.232Z,52.50
2023-03-25T01:54:54.578Z,52.10
2023-03-25T01:57:23.189Z,52.00
2023-03-25T01:59:51.910Z,52.10
2023-03-25T02:02:20.034Z,52.10
2023-03-25T02:05:02.476Z,52.10
2023-03-25T02:07:33.528Z,52.20
2023-03-25T02:10:08.168Z,52.30
2023-03-25T02:12:34.947Z,52.60
2023-03-25T02:15:05.896Z,53.10
2023-03-25T02:18:02.149Z,53.40
2023-03-25T02:21:25.784Z,53.50
2023-03-25T02:24:35.221Z,53.60
2023-03-25T02:27:15.438Z,53.70
2023-03-25T02:29:54.095Z,53.70
2023-03-25T02:32:39.178Z,53.90
2023-03-25T02:35:16.456Z,54.10
2023-03-25T02:38:06.451Z,53.60
2023-03-25T02:40:58.875Z,52.90
2023-03-25T02:43:40.173Z,53.10
2023-03-25T02:46:12.015Z,52.70
2023-03-25T02:48:53.811Z,52.30
2023-03-25T02:51:46.312Z,52.10
2023-03-25T02:54:15.793Z,52.00
2023-03-25T02:56:46.083Z,52.00
2023-03-25T02:59:14.274Z,52.10
2023-03-25T03:01:41.414Z,53.00
2023-03-25T03:04:08.560Z,55.80
2023-03-25T03:06:40.033Z,58.50
2023-03-25T03:09:25.532Z,59.90
2023-03-25T03:12:00.194Z,59.80
2023-03-25T03:14:45.849Z,60.30
2023-03-25T03:17:34.236Z,60.90
2023-03-25T03:20:15.852Z,59.80
2023-03-25T03:22:52.698Z,59.20
2023-03-25T03:25:28.067Z,58.80
2023-03-25T03:28:25.804Z,58.40
2023-03-25T03:30:58.852Z,57.50
2023-03-25T03:33:34.563Z,57.60
2023-03-25T03:36:09.444Z,57.00
2023-03-25T03:38:40.956Z,56.80
2023-03-25T03:41:11.956Z,56.70
2023-03-25T03:43:38.654Z,55.60
2023-03-25T03:46:11.377Z,54.80
2023-03-25T03:48:49.268Z,54.90
2023-03-25T03:51:25.060Z,54.90
2023-03-25T03:54:14.463Z,54.20
2023-03-25T03:57:27.795Z,54.30
2023-03-25T04:00:08.211Z,54.00
2023-03-25T04:02:42.651Z,54.50
2023-03-25T04:05:12.194Z,54.40
2023-03-25T04:07:44.172Z,54.20
2023-03-25T04:10:52.731Z,53.90
2023-03-25T04:13:21.982Z,53.30
2023-03-25T04:15:49.414Z,53.10
2023-03-25T04:18:17.654Z,52.60
2023-03-25T04:20:45.035Z,52.20
2023-03-25T04:23:18.391Z,51.70
2023-03-25T04:25:50.059Z,51.80
2023-03-25T04:28:18.069Z,52.40
2023-03-25T04:30:46.229Z,52.60
2023-03-25T04:33:13.375Z,52.90
2023-03-25T04:35:40.596Z,53.10
2023-03-25T04:38:07.893Z,53.60
2023-03-25T04:40:34.674Z,53.70
2023-03-25T04:43:01.429Z,54.60
2023-03-25T04:45:28.912Z,55.10
2023-03-25T04:47:55.956Z,57.10
2023-03-25T04:50:27.147Z,57.00
2023-03-25T04:52:57.569Z,58.30
2023-03-25T04:55:25.767Z,56.30
2023-03-25T04:57:54.100Z,57.20
2023-03-25T05:00:24.077Z,57.20
2023-03-25T05:02:54.112Z,57.50
2023-03-25T05:05:23.425Z,57.00
2023-03-25T05:07:55.348Z,56.50
2023-03-25T05:10:24.752Z,55.90
2023-03-25T05:12:59.027Z,55.70
2023-03-25T05:15:26.460Z,55.60
2023-03-25T05:17:53.203Z,56.20
2023-03-25T05:20:20.001Z,56.40
2023-03-25T05:22:46.697Z,56.00
2023-03-25T05:25:13.444Z,56.10
2023-03-25T05:27:40.268Z,56.30
2023-03-25T05:30:08.311Z,56.30
2023-03-25T05:32:35.063Z,55.80
2023-03-25T05:35:03.231Z,55.80
2023-03-25T05:37:30.335Z,56.00
2023-03-25T05:39:57.047Z,55.70
2023-03-25T05:42:23.966Z,55.40
2023-03-25T05:44:52.008Z,56.10
2023-03-25T05:47:21.971Z,55.50
2023-03-25T05:49:49.940Z,55.40
2023-03-25T05:52:18.072Z,55.20
2023-03-25T05:54:46.194Z,55.10
2023-03-25T05:57:13.547Z,54.10
2023-03-25T05:59:40.748Z,52.80
2023-03-25T06:02:15.867Z,52.80
2023-03-25T06:04:43.563Z,52.30
2023-03-25T06:07:19.928Z,52.50
2023-03-25T06:09:47.937Z,52.40
2023-03-25T06:12:16.889Z,51.20
2023-03-25T06:14:45.424Z,50.80
2023-03-25T06:17:13.140Z,50.80
2023-03-25T06:19:40.057Z,50.10
2023-03-25T06:22:11.693Z,49.90
2023-03-25T06:24:42.881Z,50.00
2023-03-25T06:27:14.935Z,49.10
2023-03-25T06:29:41.939Z,49.60
2023-03-25T06:32:11.572Z,49.10
2023-03-25T06:34:39.315Z,48.80
2023-03-25T06:37:06.446Z,47.70
2023-03-25T06:39:33.816Z,47.40
2023-03-25T06:42:01.204Z,47.90
2023-03-25T06:44:28.202Z,47.80
2023-03-25T06:46:55.201Z,48.00
2023-03-25T06:49:22.052Z,48.30
2023-03-25T06:51:48.951Z,47.90
2023-03-25T06:54:15.735Z,47.80
2023-03-25T06:56:42.506Z,48.40
2023-03-25T06:59:09.241Z,47.40
2023-03-25T07:01:36.290Z,47.50
2023-03-25T07:04:03.004Z,46.80
2023-03-25T07:06:29.762Z,46.40
2023-03-25T07:08:56.664Z,45.90
2023-03-25T07:11:29.908Z,44.10
2023-03-25T07:13:56.791Z,44.30
2023-03-25T07:16:23.733Z,43.40
2023-03-25T07:18:51.477Z,43.20
2023-03-25T07:21:19.056Z,42.20
2023-03-25T07:23:45.912Z,41.80
2023-03-25T07:26:13.469Z,41.50
2023-03-25T07:28:41.075Z,41.60
2023-03-25T07:31:09.512Z,42.00
2023-03-25T07:33:36.404Z,42.90
2023-03-25T07:36:04.620Z,43.00
2023-03-25T07:38:31.580Z,43.10
2023-03-25T07:40:58.493Z,42.50
2023-03-25T07:43:25.313Z,42.10
2023-03-25T07:45:53.692Z,41.80
2023-03-25T07:48:22.706Z,41.70
2023-03-25T07:50:51.981Z,41.80
2023-03-25T07:53:19.170Z,42.30
2023-03-25T07:55:46.506Z,42.70
2023-03-25T07:58:13.398Z,41.80
2023-03-25T08:00:40.524Z,41.20
2023-03-25T08:03:07.366Z,40.90
2023-03-25T08:05:34.503Z,40.60
2023-03-25T08:08:01.263Z,39.70
2023-03-25T08:10:28.083Z,38.70
2023-03-25T08:12:54.946Z,39.00
2023-03-25T08:15:24.786Z,37.70
2023-03-25T08:17:52.377Z,37.40
2023-03-25T08:20:19.646Z,37.70
2023-03-25T08:22:47.989Z,37.00
2023-03-25T08:25:14.750Z,37.90
2023-03-25T08:27:41.644Z,37.70
2023-03-25T08:30:10.290Z,38.80
2023-03-25T08:32:38.439Z,39.30
2023-03-25T08:35:06.526Z,39.40
2023-03-25T08:37:37.846Z,40.10
2023-03-25T08:40:10.741Z,40.50
2023-03-25T08:42:38.431Z,41.20
2023-03-25T08:45:06.337Z,41.10
2023-03-25T08:47:33.128Z,41.30
2023-03-25T08:49:59.951Z,41.70
2023-03-25T08:52:26.688Z,40.60
2023-03-25T08:54:53.426Z,41.60
2023-03-25T08:57:20.688Z,40.40
2023-03-25T08:59:47.435Z,40.00
2023-03-25T09:02:14.402Z,39.80
2023-03-25T09:04:41.487Z,39.80
2023-03-25T09:07:12.529Z,39.60
2023-03-25T09:09:40.916Z,38.50
2023-03-25T09:12:08.608Z,38.80
2023-03-25T09:14:35.449Z,38.30
2023-03-25T09:17:02.429Z,37.90
2023-03-25T09:19:29.392Z,37.70
2023-03-25T09:21:56.260Z,37.70
2023-03-25T09:24:23.772Z,37.50
2023-03-25T09:26:50.797Z,37.90
2023-03-25T09:29:17.611Z,37.50
2023-03-25T09:31:44.434Z,38.50
2023-03-25T09:34:11.737Z,39.10
2023-03-25T09:36:38.602Z,38.80
2023-03-25T09:39:05.472Z,39.30
2023-03-25T09:41:41.612Z,39.40
2023-03-25T09:44:43.120Z,39.50
2023-03-25T09:47:15.092Z,39.60
2023-03-25T09:49:46.179Z,39.40
2023-03-25T09:52:19.504Z,39.40
2023-03-25T09:54:51.836Z,39.20
2023-03-25T09:57:24.681Z,40.10
2023-03-25T09:59:52.667Z,39.80
2023-03-25T10:02:34.705Z,39.80
2023-03-25T10:05:30.292Z,39.50
2023-03-25T10:08:16.480Z,40.00
2023-03-25T10:11:01.788Z,39.90
2023-03-25T10:13:43.871Z,39.40
2023-03-25T10:16:29.457Z,39.50
2023-03-25T10:19:33.855Z,38.70
2023-03-25T10:22:18.326Z,38.70
2023-03-25T10:24:51.147Z,37.90
2023-03-25T10:27:39.998Z,37.60
2023-03-25T10:30:09.662Z,38.20
2023-03-25T10:32:50.602Z,36.20
2023-03-25T10:35:33.911Z,36.20
2023-03-25T10:38:13.826Z,35.30
2023-03-25T10:40:50.249Z,37.00
2023-03-25T10:43:29.212Z,35.20
2023-03-25T10:46:21.218Z,35.60
2023-03-25T10:48:49.540Z,34.70
2023-03-25T10:51:26.839Z,35.60
2023-03-25T10:53:54.029Z,35.50
2023-03-25T10:56:25.733Z,35.60
2023-03-25T10:58:55.707Z,35.30
2023-03-25T11:01:42.953Z,34.30
2023-03-25T11:04:14.415Z,34.20
2023-03-25T11:06:45.863Z,33.80
2023-03-25T11:09:23.638Z,33.70
2023-03-25T11:11:52.128Z,40.30
2023-03-25T11:14:27.369Z,40.80
2023-03-25T11:17:00.957Z,40.40
2023-03-25T11:19:41.783Z,37.20
2023-03-25T11:22:16.886Z,38.20
2023-03-25T11:24:48.119Z,38.70
2023-03-25T11:27:22.853Z,39.60
2023-03-25T11:30:05.380Z,39.30
2023-03-25T11:32:37.522Z,37.80
2023-03-25T11:35:22.148Z,36.80
2023-03-25T11:37:58.447Z,35.80
2023-03-25T11:40:27.368Z,35.50
2023-03-25T11:42:59.861Z,35.00
2023-03-25T11:45:40.003Z,34.00
2023-03-25T11:48:24.696Z,34.40
2023-03-25T11:50:57.693Z,34.50
2023-03-25T11:53:27.035Z,35.00
2023-03-25T11:55:57.219Z,34.40
2023-03-25T11:58:28.811Z,34.50
2023-03-25T12:01:07.365Z,34.60
2023-03-25T12:03:35.334Z,34.10
2023-03-25T12:06:12.738Z,34.00
2023-03-25T12:08:56.523Z,33.40
2023-03-25T12:11:37.238Z,33.70
2023-03-25T12:14:27.293Z,33.80
2023-03-25T12:17:38.211Z,32.90
2023-03-25T12:20:13.659Z,33.80
2023-03-25T12:22:57.224Z,32.40
2023-03-25T12:25:39.937Z,32.50
2023-03-25T12:28:29.166Z,33.10
2023-03-25T12:31:11.270Z,33.80
2023-03-25T12:33:49.786Z,34.20
2023-03-25T12:36:40.554Z,33.60
2023-03-25T12:39:42.313Z,32.40
2023-03-25T12:42:35.047Z,33.30
2023-03-25T12:45:19.431Z,33.00
2023-03-25T12:48:13.473Z,33.00
2023-03-25T12:51:16.140Z,33.00
2023-03-25T12:53:52.450Z,33.20
2023-03-25T12:56:47.001Z,33.00
2023-03-25T12:59:21.446Z,32.80
2023-03-25T13:02:03.304Z,32.80
2023-03-25T13:04:44.923Z,31.70
2023-03-25T13:07:20.099Z,31.00
2023-03-25T13:10:21.900Z,30.90
2023-03-25T13:12:56.546Z,30.80
2023-03-25T13:15:30.933Z,31.00
2023-03-25T13:18:24.349Z,30.80
2023-03-25T13:21:13.362Z,30.50
2023-03-25T13:23:43.649Z,29.80
2023-03-25T13:26:14.841Z,28.80
2023-03-25T13:28:47.581Z,28.30
2023-03-25T13:31:19.393Z,28.40
2023-03-25T13:33:53.515Z,28.40
2023-03-25T13:36:29.474Z,27.80
2023-03-25T13:39:10.212Z,27.20
2023-03-25T13:41:47.782Z,27.00
2023-03-25T13:44:27.231Z,27.40
2023-03-25T13:47:05.440Z,28.40
2023-03-25T13:49:44.877Z,29.20
2023-03-25T13:52:14.904Z,29.90
2023-03-25T13:54:52.323Z,30.00
2023-03-25T13:57:46.014Z,29.70
2023-03-25T14:00:21.685Z,29.80
2023-03-25T14:02:49.810Z,30.00
2023-03-25T14:05:35.961Z,30.50
2023-03-25T14:08:52.642Z,31.20
2023-03-25T14:11:43.721Z,31.70
2023-03-25T14:14:16.572Z,32.30
2023-03-25T14:17:05.431Z,32.00
2023-03-25T14:19:35.135Z,30.90
2023-03-25T14:22:14.234Z,30.40
2023-03-25T14:24:41.709Z,31.00
2023-03-25T14:27:22.579Z,31.40
2023-03-25T14:29:58.813Z,34.90
2023-03-25T14:32:46.605Z,34.80
2023-03-25T14:35:32.459Z,36.20
2023-03-25T14:38:08.696Z,36.20
2023-03-25T14:40:55.358Z,36.00
2023-03-25T14:43:40.439Z,33.70
2023-03-25T14:46:14.514Z,33.80
2023-03-25T14:48:51.865Z,35.90
2023-03-25T14:51:28.392Z,34.80
2023-03-25T14:54:17.447Z,35.50
2023-03-25T14:56:47.020Z,35.80
2023-03-25T14:59:17.528Z,36.00
2023-03-25T15:01:46.869Z,36.00
2023-03-25T15:04:33.540Z,36.00
2023-03-25T15:07:02.533Z,35.60
2023-03-25T15:09:30.810Z,35.60
2023-03-25T15:12:00.998Z,36.70
2023-03-25T15:14:38.870Z,37.50
2023-03-25T15:17:44.581Z,39.00
2023-03-25T15:20:14.053Z,41.30
2023-03-25T15:22:40.928Z,44.20
2023-03-25T15:25:18.917Z,45.90
2023-03-25T15:28:22.694Z,47.30
2023-03-25T15:30:58.730Z,47.70
2023-03-25T15:33:41.461Z,47.30
2023-03-25T15:36:23.566Z,49.20
2023-03-25T15:38:50.465Z,48.50
2023-03-25T15:41:23.492Z,47.60
2023-03-25T15:44:12.038Z,45.80
2023-03-25T15:47:02.980Z,46.60
2023-03-25T15:49:35.631Z,47.00
2023-03-25T15:52:24.073Z,47.70
2023-03-25T15:54:55.025Z,47.80
2023-03-25T15:57:40.821Z,47.20
2023-03-25T16:00:22.485Z,46.30
2023-03-25T16:03:03.892Z,46.80
2023-03-25T16:05:32.151Z,46.80
2023-03-25T16:08:05.825Z,47.80
2023-03-25T16:10:36.552Z,48.10
2023-03-25T16:13:16.647Z,47.60
2023-03-25T16:15:45.571Z,48.90
2023-03-25T16:18:15.827Z,50.60
2023-03-25T16:20:43.541Z,53.70
2023-03-25T16:23:21.783Z,56.20
2023-03-25T16:25:50.700Z,60.80
2023-03-25T16:28:34.207Z,62.80
2023-03-25T16:31:02.910Z,65.70
2023-03-25T16:33:32.783Z,68.30
2023-03-25T16:36:03.491Z,69.00
2023-03-25T16:38:31.497Z,68.80
2023-03-25T16:41:07.809Z,70.50
2023-03-25T16:43:34.704Z,70.90
2023-03-25T16:46:03.393Z,70.50
2023-03-25T16:48:48.738Z,70.90
2023-03-25T16:51:21.751Z,71.50
2023-03-25T16:53:55.915Z,70.40
2023-03-25T16:56:36.353Z,70.50
2023-03-25T16:59:26.372Z,65.90
2023-03-25T17:01:56.430Z,66.80
2023-03-25T17:04:39.328Z,64.80
2023-03-25T17:07:12.523Z,62.10
2023-03-25T17:09:44.179Z,62.70
2023-03-25T17:12:17.649Z,62.10
2023-03-25T17:14:46.599Z,61.10
2023-03-25T17:17:35.879Z,59.60
2023-03-25T17:20:08.122Z,58.70
2023-03-25T17:22:39.554Z,58.50
2023-03-25T17:25:51.400Z,57.80
2023-03-25T17:28:18.375Z,58.30
2023-03-25T17:30:46.230Z,57.20
2023-03-25T17:33:30.037Z,56.70
2023-03-25T17:35:57.338Z,55.90
2023-03-25T17:38:34.101Z,55.00
2023-03-25T17:41:04.191Z,54.80
2023-03-25T17:43:34.515Z,56.90
2023-03-25T17:46:02.815Z,61.30
2023-03-25T17:48:29.805Z,60.90
2023-03-25T17:50:58.581Z,63.20
2023-03-25T17:53:26.142Z,65.90
2023-03-25T17:55:53.808Z,67.60
2023-03-25T17:58:22.754Z,67.70
2023-03-25T18:00:51.979Z,69.50
2023-03-25T18:03:26.365Z,70.60
2023-03-25T18:05:58.449Z,72.50
2023-03-25T18:08:25.597Z,73.40
2023-03-25T18:10:53.934Z,73.70
2023-03-25T18:13:22.581Z,75.70
2023-03-25T18:15:50.040Z,76.00
2023-03-25T18:18:20.421Z,76.40
2023-03-25T18:20:48.334Z,76.30
2023-03-25T18:23:15.595Z,77.00
2023-03-25T18:25:44.870Z,77.80
2023-03-25T18:28:13.378Z,78.40
2023-03-25T18:30:44.820Z,78.30
2023-03-25T18:33:12.227Z,78.30
2023-03-25T18:35:39.145Z,78.40
2023-03-25T18:38:06.165Z,77.30
2023-03-25T18:40:36.989Z,76.20
2023-03-25T18:43:04.500Z,75.80
2023-03-25T18:45:31.969Z,74.50
2023-03-25T18:47:59.150Z,73.10
2023-03-25T18:50:33.202Z,71.30
2023-03-25T18:53:00.437Z,71.10
2023-03-25T18:55:29.833Z,70.30
2023-03-25T18:57:57.639Z,68.80
2023-03-25T19:00:28.653Z,67.80
2023-03-25T19:02:56.918Z,66.00
2023-03-25T19:05:25.890Z,65.40
2023-03-25T19:07:53.571Z,65.60
2023-03-25T19:10:30.043Z,65.00
2023-03-25T19:12:57.031Z,62.70
2023-03-25T19:15:27.310Z,63.30
2023-03-25T19:17:58.370Z,62.10
2023-03-25T19:20:29.355Z,62.30
2023-03-25T19:22:56.610Z,62.90
2023-03-25T19:25:23.372Z,63.00
2023-03-25T19:27:50.880Z,61.70
2023-03-25T19:30:20.590Z,61.60
2023-03-25T19:32:49.477Z,60.70
2023-03-25T19:35:18.667Z,60.80
2023-03-25T19:37:51.020Z,61.80
2023-03-25T19:40:20.990Z,61.60
2023-03-25T19:42:48.999Z,60.60
2023-03-25T19:45:17.180Z,61.40
2023-03-25T19:47:45.844Z,60.40
2023-03-25T19:50:13.813Z,60.70
2023-03-25T19:52:43.338Z,59.30
2023-03-25T19:55:10.891Z,59.50
2023-03-25T19:57:38.486Z,59.60
2023-03-25T20:00:12.605Z,58.10
2023-03-25T20:02:44.466Z,58.80
2023-03-25T20:05:12.457Z,59.10
2023-03-25T20:07:41.648Z,58.40
2023-03-25T20:10:19.666Z,58.10
2023-03-25T20:12:48.338Z,57.80
2023-03-25T20:15:16.309Z,57.60
2023-03-25T20:17:43.804Z,58.20
2023-03-25T20:20:12.845Z,57.50
2023-03-25T20:22:40.830Z,57.70
2023-03-25T20:25:09.250Z,56.70
2023-03-25T20:27:36.226Z,57.50
2023-03-25T20:30:04.213Z,57.60
2023-03-25T20:32:39.950Z,57.50
2023-03-25T20:35:09.193Z,57.80
2023-03-25T20:37:37.168Z,59.30
2023-03-25T20:40:06.214Z,57.40
2023-03-25T20:42:32.989Z,56.20
2023-03-25T20:44:59.740Z,56.70
2023-03-25T20:47:26.577Z,56.90
2023-03-25T20:49:53.605Z,57.50
2023-03-25T20:52:20.843Z,57.70
2023-03-25T20:54:49.432Z,57.70
2023-03-25T20:57:16.547Z,57.30
2023-03-25T20:59:44.065Z,57.70
2023-03-25T21:02:12.469Z,58.30
2023-03-25T21:04:39.491Z,58.30
2023-03-25T21:07:07.051Z,58.70
2023-03-25T21:09:33.778Z,58.30
2023-03-25T21:12:01.350Z,58.30
2023-03-25T21:14:28.154Z,58.20
2023-03-25T21:16:54.964Z,57.70
2023-03-25T21:19:25.468Z,57.90
2023-03-25T21:21:52.454Z,58.10
2023-03-25T21:24:22.387Z,57.90
2023-03-25T21:26:49.566Z,57.90
2023-03-25T21:29:16.465Z,58.30
2023-03-25T21:31:43.309Z,58.20
2023-03-25T21:34:10.169Z,58.10
2023-03-25T21:36:36.916Z,58.60
2023-03-25T21:39:06.156Z,59.00
2023-03-25T21:41:32.921Z,58.80
2023-03-25T21:43:59.792Z,59.10
2023-03-25T21:46:29.670Z,59.60
2023-03-25T21:48:58.553Z,59.50
2023-03-25T21:51:26.700Z,59.80
2023-03-25T21:53:53.614Z,60.00
2023-03-25T21:56:25.040Z,60.00
2023-03-25T21:58:52.421Z,60.00
2023-03-25T22:01:28.270Z,60.50
2023-03-25T22:03:57.359Z,60.50
2023-03-25T22:06:27.236Z,60.60
2023-03-25T22:08:54.493Z,60.40
2023-03-25T22:11:24.348Z,60.60
2023-03-25T22:13:52.015Z,60.30
2023-03-25T22:16:20.761Z,60.60
2023-03-25T22:18:48.492Z,60.50
2023-03-25T22:21:24.548Z,60.50
2023-03-25T22:23:56.122Z,60.80
2023-03-25T22:26:24.494Z,60.30
2023-03-25T22:28:58.788Z,60.10
2023-03-25T22:31:31.105Z,59.80
2023-03-25T22:34:03.277Z,59.90
2023-03-25T22:36:32.223Z,59.60
2023-03-25T22:39:00.300Z,59.50
2023-03-25T22:41:27.635Z,59.40
2023-03-25T22:43:55.902Z,59.90
2023-03-25T22:46:22.968Z,60.60
2023-03-25T22:48:50.439Z,60.60
2023-03-25T22:51:19.656Z,60.60
2023-03-25T22:53:46.954Z,60.60
2023-03-25T22:56:14.312Z,60.90
2023-03-25T22:58:41.211Z,61.00
2023-03-25T23:01:22.414Z,61.70
2023-03-25T23:03:49.940Z,61.70
2023-03-25T23:06:17.361Z,61.50
2023-03-25T23:08:44.363Z,60.80
2023-03-25T23:11:17.291Z,61.40
2023-03-25T23:13:47.857Z,60.60
2023-03-25T23:16:17.369Z,60.60
2023-03-25T23:18:45.529Z,60.20
2023-03-25T23:21:14.923Z,60.40
2023-03-25T23:23:52.614Z,60.10
2023-03-25T23:26:24.858Z,59.80
2023-03-25T23:28:52.975Z,59.80
2023-03-25T23:31:29.169Z,60.60
2023-03-25T23:33:58.462Z,60.60
2023-03-25T23:36:26.619Z,61.20
2023-03-25T23:38:53.741Z,61.20
2023-03-25T23:41:25.922Z,61.40
2023-03-25T23:43:54.311Z,62.30
2023-03-25T23:46:23.209Z,62.30
2023-03-25T23:48:54.724Z,62.50
2023-03-25T23:51:24.187Z,62.50
2023-03-25T23:53:52.060Z,62.50
2023-03-25T23:56:20.758Z,61.50
2023-03-25T23:58:48.051Z,61.20
